Flight Track Log - Related Links

Times and Time Zones

All times are in EDT time to prevent confusion due to time zone crossing. See the N199CG flight status page for this flight to view local times or setup timezone preferences in your user account.

Time Position Orientation Groundspeed Altitude Reporting Facility
EDT Latitude Longitude Course Direction KTS MPH feet Rate Location/Type
Sat 11:22:13 AM 35.5728 -79.8669 149° Southeast 167 192 3,200  Level Washington Center
Sat 11:23:11 AM 35.5300 -79.8364 150° Southeast 167 192 4,600 1,311 Climbing Washington Center
Sat 11:24:12 AM 35.4892 -79.8089 151° Southeast 167 192 5,800 1,289 Climbing Washington Center
Sat 11:25:12 AM 35.4483 -79.7811 151° Southeast 172 198 7,200 1,289 Climbing Washington Center
Sat 11:26:13 AM 35.4056 -79.7533 152° Southeast 177 204 8,400 1,240 Climbing Washington Center
Sat 11:27:00 AM 35.4099 -79.7359 149° Southeast  Level Estimated
Sat 11:27:13 AM 35.3647 -79.7283 153° Southeast 172 198 9,700  Level Washington Center
Sat 11:28:11 AM 35.3219 -79.6981 150° Southeast 172 198 10,900 1,109 Climbing Washington Center
Sat 11:29:12 AM 35.2769 -79.6678 151° Southeast 177 204 11,900 541 Climbing Washington Center
Sat 11:30:13 AM 35.2239 -79.6347 153° Southeast 200 230 12,000 50 Climbing Washington Center
Sat 11:31:11 AM 35.1625 -79.5961 153° Southeast 237 273 12,000  Level Washington Center
Sat 11:32:12 AM 35.1075 -79.5603 152° Southeast 242 278 12,000  Level Washington Center
Sat 11:33:12 AM 35.0422 -79.5164 151° Southeast 242 278 12,000  Level Washington Center
Sat 11:34:13 AM 34.9869 -79.4783 151° Southeast 242 278 12,000  Level Washington Center
Sat 11:35:11 AM 34.9586 -79.3908 112° Southeast 247 284 12,000  Level Washington Center
Sat 11:36:11 AM 34.9364 -79.3036 107° East 253 291 12,000  Level Washington Center
Sat 11:37:11 AM 34.9158 -79.2192 107° East 259 298 12,000  Level Washington Center
Sat 11:38:13 AM 34.8956 -79.1322 106° East 264 304 12,000 -49 Level Washington Center
Sat 11:39:13 AM 34.8514 -79.0769 134° Southeast 229 264 11,900 -458 Descending Washington Center
Sat 11:40:11 AM 34.7917 -79.0492 159° South 234 269 11,100 -262 Descending Washington Center
Sat 11:42:39 AM 34.6294 -78.9969 165° South 241 277 11,000 -29 Descending Jacksonville Center
Sat 11:43:39 AM 34.5661 -78.9744 164° South 241 277 11,000  Level Jacksonville Center
Sat 11:44:39 AM 34.5072 -78.9569 166° South 236 272 11,000 -350 Level Jacksonville Center
Sat 11:45:39 AM 34.4464 -78.9422 169° South 230 265 10,300 -1,200 Descending Jacksonville Center
Sat 11:46:39 AM 34.3850 -78.9172 161° South 230 265 8,600 -1,700 Descending Jacksonville Center
Sat 11:47:39 AM 34.3197 -78.8978 166° South 230 265 6,900 -1,700 Descending Jacksonville Center
Sat 11:48:39 AM 34.2586 -78.8753 163° South 230 265 5,200 -1,450 Descending Jacksonville Center
Sat 11:49:39 AM 34.1975 -78.8556 165° South 230 265 4,000 -650 Descending Jacksonville Center
Sat 11:50:39 AM 34.1447 -78.8381 165° South 218 251 3,900 -50 Descending Jacksonville Center
Sat 11:51:39 AM 34.0983 -78.8200 162° South 198 228 3,900 -50 Level Jacksonville Center
Sat 11:52:39 AM 34.0497 -78.8072 168° South 186 214 3,800 -100 Descending Jacksonville Center
Sat 11:54:00 AM 33.9851 -78.7703 171° South  Level FlightAware Approximate
Sat 12:01:00 PM 33.8117 -78.7239 171° South  Level Estimated
Sat 12:02:00 PM 33.8117 -78.7239 153° Southeast  Level Estimated
Sat 12:03:00 PM 33.8117 -78.7239 171° South  Level Estimated
Sat 12:04:00 PM 33.8117 -78.7239 153° Southeast  Level Estimated

Login

Don't have an account? Register now (free) for customized features, flight alerts, and more!